Time;durP1;ratioP1;P1;durP2;ratioP2;P2;SDS_P1;SDS_P2;PMS_P1;PMS_P2;Temp;Humidity;BMP_temperature;BMP_pressure;BME280_temperature;BME280_humidity;BME280_pressure;Samples;Min_cycle;Max_cycle;Signal;HPM_P1;HPM_P2
2023/07/19 00:01:06;;;;;;;3.17;2.58;;;19.20;99.90;;;;;;5058980;28;20198;-80
2023/07/19 00:03:34;;;;;;;3.40;2.80;;;19.20;99.90;;;;;;5070988;28;20683;-80
2023/07/19 00:06:02;;;;;;;4.32;2.88;;;19.20;99.90;;;;;;5068860;28;20217;-80
2023/07/19 00:08:31;;;;;;;3.15;2.58;;;19.10;99.90;;;;;;5070816;28;20194;-80
2023/07/19 00:10:59;;;;;;;3.53;2.40;;;19.10;99.90;;;;;;5070774;28;20212;-80
2023/07/19 00:13:27;;;;;;;2.85;2.65;;;19.00;99.90;;;;;;5064181;28;20551;-80
2023/07/19 00:15:55;;;;;;;2.90;2.55;;;19.00;99.90;;;;;;5070223;28;20232;-80
2023/07/19 00:18:22;;;;;;;2.72;2.42;;;19.10;99.90;;;;;;5075585;28;20205;-80
2023/07/19 00:20:50;;;;;;;3.05;2.67;;;19.20;99.90;;;;;;5073705;28;20566;-79
2023/07/19 00:23:17;;;;;;;4.22;2.53;;;19.30;99.90;;;;;;5068314;28;20198;-80
2023/07/19 00:25:45;;;;;;;4.25;2.65;;;19.30;99.90;;;;;;5076343;28;20213;-80
2023/07/19 00:28:14;;;;;;;4.47;2.47;;;19.20;99.90;;;;;;5073907;28;20198;-80
2023/07/19 00:30:42;;;;;;;4.35;2.75;;;19.10;99.90;;;;;;5068087;28;20217;-80
2023/07/19 00:33:10;;;;;;;3.03;2.67;;;19.10;99.90;;;;;;5071372;28;20194;-80
2023/07/19 00:35:41;;;;;;;3.85;2.60;;;18.90;99.90;;;;;;5073950;28;20221;-80
2023/07/19 00:38:09;;;;;;;2.60;2.40;;;19.00;99.90;;;;;;5069936;28;20194;-80
2023/07/19 00:40:36;;;;;;;4.28;2.80;;;19.10;99.90;;;;;;5069139;28;20212;-79
2023/07/19 00:43:09;;;;;;;3.70;2.88;;;19.40;99.90;;;;;;5066082;28;20198;-80
2023/07/19 00:45:46;;;;;;;5.80;2.40;;;19.40;99.90;;;;;;5070790;28;20707;-80
2023/07/19 00:48:15;;;;;;;5.40;2.80;;;19.50;99.90;;;;;;5069261;28;20193;-79
2023/07/19 00:50:43;;;;;;;3.83;2.67;;;19.60;99.90;;;;;;5071632;28;20193;-80
2023/07/19 00:53:12;;;;;;;2.88;2.20;;;19.60;99.90;;;;;;5065090;28;20197;-79
2023/07/19 00:55:39;;;;;;;4.30;2.95;;;19.60;99.90;;;;;;5067324;28;20244;-80
2023/07/19 00:58:08;;;;;;;4.05;2.42;;;19.50;99.90;;;;;;5063376;28;20551;-79
2023/07/19 01:00:35;;;;;;;5.25;2.70;;;19.50;99.90;;;;;;5072629;28;20561;-80
2023/07/19 01:03:07;;;;;;;4.43;2.80;;;19.60;99.90;;;;;;5071195;28;20201;-79
2023/07/19 01:05:34;;;;;;;4.97;2.47;;;19.60;99.90;;;;;;5066477;28;20213;-80
2023/07/19 01:08:02;;;;;;;7.35;2.50;;;19.60;99.90;;;;;;5067703;28;20197;-79
2023/07/19 01:10:32;;;;;;;5.60;3.45;;;19.60;99.90;;;;;;5068585;28;20674;-80
2023/07/19 01:13:03;;;;;;;4.18;2.20;;;19.60;99.90;;;;;;5067949;28;20202;-80
2023/07/19 01:15:31;;;;;;;4.20;2.67;;;19.70;99.90;;;;;;5072170;28;20240;-80
2023/07/19 01:17:58;;;;;;;3.53;2.50;;;19.60;99.90;;;;;;5062871;28;20210;-80
2023/07/19 01:20:28;;;;;;;3.10;2.35;;;19.70;99.90;;;;;;5071654;28;20197;-79
2023/07/19 01:22:57;;;;;;;2.60;2.10;;;19.60;99.70;;;;;;5066414;28;20683;-80
2023/07/19 01:25:25;;;;;;;4.90;2.42;;;19.50;99.90;;;;;;5066173;28;20213;-80
2023/07/19 01:27:54;;;;;;;3.58;2.70;;;19.50;99.90;;;;;;5068830;28;20194;-80
2023/07/19 01:30:21;;;;;;;3.75;2.70;;;19.60;99.80;;;;;;5064831;28;20247;-80
2023/07/19 01:32:48;;;;;;;4.40;2.50;;;19.50;99.80;;;;;;5070779;28;20209;-80
2023/07/19 01:35:16;;;;;;;3.67;2.38;;;19.60;99.70;;;;;;5065603;28;20292;-80
2023/07/19 01:37:44;;;;;;;3.50;2.47;;;19.40;99.80;;;;;;5072987;28;20193;-80
2023/07/19 01:40:13;;;;;;;4.70;2.65;;;19.30;99.90;;;;;;5071828;28;20551;-80
2023/07/19 01:42:40;;;;;;;3.92;2.35;;;19.20;99.90;;;;;;5072553;28;20197;-80
2023/07/19 01:45:09;;;;;;;4.05;2.63;;;19.20;99.90;;;;;;5070193;28;20210;-79
2023/07/19 01:47:36;;;;;;;3.10;2.30;;;19.40;99.80;;;;;;5066647;28;20217;-80
2023/07/19 01:50:04;;;;;;;3.58;2.42;;;19.40;99.30;;;;;;5070005;28;20193;-79
2023/07/19 01:52:31;;;;;;;3.90;2.60;;;19.40;99.50;;;;;;5064855;28;20189;-80
2023/07/19 01:54:59;;;;;;;3.78;2.20;;;19.50;99.40;;;;;;5071332;28;20233;-80
2023/07/19 01:57:28;;;;;;;2.85;2.20;;;19.40;99.40;;;;;;5065815;28;20193;-80
2023/07/19 01:59:55;;;;;;;2.72;2.45;;;19.30;99.50;;;;;;5068503;28;20199;-80
2023/07/19 02:02:22;;;;;;;3.20;2.50;;;19.30;99.90;;;;;;5070293;28;20194;-80
2023/07/19 02:04:50;;;;;;;6.00;2.80;;;19.30;99.90;;;;;;5070872;28;20225;-80
2023/07/19 02:07:17;;;;;;;4.95;2.92;;;19.10;99.90;;;;;;5071058;28;20205;-80
2023/07/19 02:09:46;;;;;;;4.53;2.63;;;18.90;99.90;;;;;;5064258;28;20209;-79
2023/07/19 02:12:13;;;;;;;3.60;2.88;;;18.80;99.90;;;;;;5066550;28;20205;-80
2023/07/19 02:14:42;;;;;;;3.92;2.65;;;18.70;99.90;;;;;;5070205;28;20217;-80
2023/07/19 02:17:10;;;;;;;3.05;2.42;;;18.70;99.90;;;;;;5068662;28;20209;-80
2023/07/19 02:19:39;;;;;;;3.15;2.75;;;18.70;99.90;;;;;;5066531;28;20217;-79
2023/07/19 02:22:07;;;;;;;3.15;2.55;;;18.70;99.90;;;;;;5065111;28;20198;-80
2023/07/19 02:24:36;;;;;;;3.20;2.47;;;18.90;99.90;;;;;;5071657;28;20182;-80
2023/07/19 02:27:05;;;;;;;3.53;2.78;;;18.90;99.90;;;;;;5060598;28;20198;-80
2023/07/19 02:29:33;;;;;;;4.10;2.95;;;18.90;99.90;;;;;;5070730;28;20563;-80
2023/07/19 02:32:02;;;;;;;4.93;3.35;;;18.90;99.90;;;;;;5063068;28;20208;-80
2023/07/19 02:34:29;;;;;;;3.63;2.70;;;19.00;99.90;;;;;;5063988;28;20193;-80
2023/07/19 02:36:57;;;;;;;5.68;3.30;;;19.00;99.90;;;;;;5070434;28;20225;-80
2023/07/19 02:39:26;;;;;;;4.65;3.05;;;18.80;99.90;;;;;;5068342;28;20201;-80
2023/07/19 02:41:54;;;;;;;3.63;2.92;;;18.70;99.90;;;;;;5063766;28;20193;-80
2023/07/19 02:44:23;;;;;;;4.97;3.10;;;18.60;99.90;;;;;;5063774;28;20198;-80
2023/07/19 02:46:50;;;;;;;3.80;3.00;;;18.60;99.90;;;;;;5070859;28;20205;-80
2023/07/19 02:49:19;;;;;;;3.67;3.03;;;18.50;99.90;;;;;;5070530;28;20198;-80
2023/07/19 02:51:47;;;;;;;5.32;3.50;;;18.40;99.90;;;;;;5067355;28;20206;-79
2023/07/19 02:54:14;;;;;;;5.47;3.42;;;18.40;99.90;;;;;;5067654;28;20198;-80
2023/07/19 02:56:42;;;;;;;4.60;3.38;;;18.40;99.90;;;;;;5066710;28;20222;-80
2023/07/19 02:59:09;;;;;;;5.38;3.92;;;18.40;99.90;;;;;;5068231;28;20197;-80
2023/07/19 03:01:37;;;;;;;4.20;3.35;;;18.30;99.90;;;;;;5067495;28;20211;-80
2023/07/19 03:04:26;;;;;;;3.20;2.90;;;18.30;99.90;;;;;;5060863;28;20197;-80
2023/07/19 03:06:53;;;;;;;4.43;3.20;;;18.20;99.90;;;;;;5067018;28;20198;-80
2023/07/19 03:09:21;;;;;;;7.05;3.33;;;18.40;99.90;;;;;;5054788;28;20408;-80
2023/07/19 03:11:48;;;;;;;4.75;3.70;;;18.40;99.90;;;;;;5068731;28;20201;-80
2023/07/19 03:14:16;;;;;;;5.78;3.30;;;18.20;99.90;;;;;;5066722;28;20204;-80
2023/07/19 03:16:43;;;;;;;3.97;3.13;;;18.30;99.90;;;;;;5069920;28;20238;-80
2023/07/19 03:19:11;;;;;;;6.00;3.42;;;18.20;99.90;;;;;;5069260;28;20559;-80
2023/07/19 03:21:39;;;;;;;3.40;2.95;;;18.20;99.90;;;;;;5066520;28;20198;-80
2023/07/19 03:24:08;;;;;;;5.35;3.35;;;18.30;99.90;;;;;;5070100;28;20204;-80
2023/07/19 03:26:36;;;;;;;4.32;3.28;;;18.10;99.90;;;;;;5069745;28;20205;-80
2023/07/19 03:29:03;;;;;;;5.93;2.80;;;18.10;99.90;;;;;;5071731;28;20208;-80
2023/07/19 03:31:31;;;;;;;4.60;3.33;;;18.20;99.90;;;;;;5066565;28;20197;-80
2023/07/19 03:33:58;;;;;;;3.58;3.28;;;18.30;99.90;;;;;;5071873;28;20687;-80
2023/07/19 03:36:26;;;;;;;5.30;3.13;;;18.20;99.90;;;;;;5073237;28;20718;-80
2023/07/19 03:38:55;;;;;;;4.80;3.47;;;18.10;99.90;;;;;;5071579;28;20201;-80
2023/07/19 03:41:23;;;;;;;6.03;3.13;;;18.10;99.90;;;;;;5064255;28;20201;-80
2023/07/19 03:43:50;;;;;;;3.97;3.20;;;18.00;99.90;;;;;;5069847;28;20213;-80
2023/07/19 03:46:18;;;;;;;4.57;3.25;;;18.00;99.90;;;;;;5070861;28;20210;-80
2023/07/19 03:48:45;;;;;;;4.20;3.15;;;18.00;99.90;;;;;;5064975;28;20747;-80
2023/07/19 03:51:14;;;;;;;3.15;2.83;;;17.90;99.90;;;;;;5066717;28;20198;-80
2023/07/19 03:53:41;;;;;;;5.30;3.33;;;18.00;99.90;;;;;;5079007;28;20208;-79
2023/07/19 03:56:10;;;;;;;6.15;3.80;;;18.00;99.90;;;;;;5070356;28;20255;-79
2023/07/19 03:58:40;;;;;;;4.20;3.70;;;18.10;99.90;;;;;;5075126;28;20659;-79
2023/07/19 04:01:08;;;;;;;6.53;4.15;;;18.20;99.90;;;;;;5065596;28;20562;-79
2023/07/19 04:03:35;;;;;;;5.93;3.95;;;18.30;99.90;;;;;;5072558;28;20197;-80
2023/07/19 04:06:03;;;;;;;5.38;3.78;;;18.10;99.90;;;;;;5073911;28;20221;-79
2023/07/19 04:08:30;;;;;;;6.85;4.30;;;18.00;99.90;;;;;;5065057;28;20206;-80
2023/07/19 04:10:58;;;;;;;7.15;4.57;;;17.90;99.90;;;;;;5070075;28;20196;-80
2023/07/19 04:13:28;;;;;;;5.15;4.15;;;18.00;99.90;;;;;;5069882;28;20193;-79
2023/07/19 04:15:56;;;;;;;5.78;4.45;;;17.90;99.90;;;;;;5070183;28;20222;-80
2023/07/19 04:18:23;;;;;;;7.28;4.07;;;17.90;99.90;;;;;;5069656;28;20548;-80
2023/07/19 04:20:55;;;;;;;7.07;4.20;;;18.00;99.90;;;;;;5069947;28;20205;-80
2023/07/19 04:23:22;;;;;;;7.00;4.20;;;18.10;99.90;;;;;;5073500;28;20190;-80
2023/07/19 04:25:50;;;;;;;6.35;3.70;;;18.20;99.90;;;;;;5068933;28;20253;-79
2023/07/19 04:28:19;;;;;;;5.75;4.00;;;18.40;99.90;;;;;;5068819;28;20637;-80
2023/07/19 04:30:48;;;;;;;6.60;4.40;;;18.20;99.90;;;;;;5070374;28;20209;-80
2023/07/19 04:33:17;;;;;;;4.78;3.67;;;18.30;99.90;;;;;;5070800;28;20210;-80
2023/07/19 04:35:44;;;;;;;6.00;4.57;;;18.20;99.90;;;;;;5071733;28;20221;-80
2023/07/19 04:38:12;;;;;;;6.10;4.30;;;18.30;99.90;;;;;;5072084;28;20194;-80
2023/07/19 04:40:39;;;;;;;5.15;4.07;;;18.40;99.90;;;;;;5063344;28;20209;-80
2023/07/19 04:43:07;;;;;;;8.70;4.90;;;18.40;99.90;;;;;;5073777;28;20197;-79
2023/07/19 04:45:34;;;;;;;7.10;4.28;;;18.30;99.90;;;;;;5068391;28;20214;-80
2023/07/19 04:48:04;;;;;;;6.95;4.05;;;18.40;99.90;;;;;;5072294;28;20194;-79
2023/07/19 04:50:32;;;;;;;5.82;4.30;;;18.10;99.90;;;;;;5075911;28;20202;-80
2023/07/19 04:52:59;;;;;;;8.38;4.07;;;18.20;99.90;;;;;;5075195;28;20193;-80
2023/07/19 04:55:27;;;;;;;9.73;4.88;;;18.30;99.90;;;;;;5073395;28;20241;-79
2023/07/19 04:57:54;;;;;;;9.77;5.20;;;18.60;99.90;;;;;;5072287;28;20214;-79
2023/07/19 05:00:27;;;;;;;7.53;4.45;;;18.70;99.90;;;;;;5071537;28;20212;-79
2023/07/19 05:02:55;;;;;;;8.55;4.55;;;18.60;99.90;;;;;;5071999;28;20557;-80
2023/07/19 05:05:25;;;;;;;5.20;4.00;;;18.50;99.90;;;;;;5071863;28;20568;-81
2023/07/19 05:07:53;;;;;;;9.38;3.90;;;18.50;99.90;;;;;;5075718;28;20208;-80
2023/07/19 05:10:21;;;;;;;6.00;3.45;;;18.60;99.90;;;;;;5081560;28;21192;-80
2023/07/19 05:12:48;;;;;;;5.00;3.38;;;18.70;99.90;;;;;;5059333;28;20217;-80
2023/07/19 05:15:16;;;;;;;6.25;3.95;;;18.60;99.90;;;;;;5060433;28;20226;-80
2023/07/19 05:17:43;;;;;;;7.15;4.10;;;18.30;99.90;;;;;;5061277;28;20226;-80
2023/07/19 05:20:12;;;;;;;5.78;3.92;;;18.30;99.90;;;;;;5072059;28;20194;-79
2023/07/19 05:22:43;;;;;;;7.38;4.28;;;18.40;99.90;;;;;;5070123;28;20202;-79
2023/07/19 05:25:11;;;;;;;7.68;4.60;;;18.30;99.90;;;;;;5074733;28;20226;-79
2023/07/19 05:27:40;;;;;;;7.13;4.50;;;18.30;99.90;;;;;;5070162;28;20185;-79
2023/07/19 05:30:09;;;;;;;7.53;4.00;;;18.40;99.90;;;;;;5062304;28;20545;-79
2023/07/19 05:32:36;;;;;;;6.40;4.07;;;18.50;99.90;;;;;;5068910;28;20194;-79
2023/07/19 05:35:05;;;;;;;7.35;4.32;;;18.60;99.90;;;;;;5069483;28;20225;-79
2023/07/19 05:37:32;;;;;;;6.72;4.70;;;18.60;99.90;;;;;;5071004;28;20218;-79
2023/07/19 05:40:01;;;;;;;6.43;4.18;;;18.70;99.90;;;;;;5063970;28;20197;-79
2023/07/19 05:42:28;;;;;;;5.25;4.32;;;18.90;99.90;;;;;;5068624;28;20189;-79
2023/07/19 05:44:56;;;;;;;7.05;4.22;;;19.00;99.90;;;;;;5073444;28;20246;-79
2023/07/19 05:47:23;;;;;;;8.35;4.22;;;19.10;99.90;;;;;;5067491;28;20217;-79
2023/07/19 05:49:50;;;;;;;5.32;4.40;;;19.20;99.90;;;;;;5068117;28;20212;-79
2023/07/19 05:52:18;;;;;;;5.75;3.95;;;19.30;99.90;;;;;;5065706;28;20190;-79
2023/07/19 05:54:45;;;;;;;4.57;3.88;;;19.20;99.90;;;;;;5071814;28;20213;-79
2023/07/19 05:57:14;;;;;;;5.28;3.47;;;19.20;99.90;;;;;;5066360;28;20205;-79
2023/07/19 05:59:42;;;;;;;8.93;3.65;;;19.20;99.90;;;;;;5065309;28;20209;-79
2023/07/19 06:02:09;;;;;;;7.10;4.20;;;19.30;99.90;;;;;;5071119;28;20204;-79
2023/07/19 06:04:38;;;;;;;7.13;3.80;;;19.30;99.90;;;;;;5070122;28;20196;-81
2023/07/19 06:07:05;;;;;;;9.57;5.20;;;19.30;99.90;;;;;;5066594;28;20205;-83
2023/07/19 06:09:33;;;;;;;23.55;9.57;;;19.10;99.90;;;;;;5063369;28;20675;-83
2023/07/19 06:12:00;;;;;;;13.50;6.35;;;19.50;99.90;;;;;;5062261;28;20221;-81
2023/07/19 06:14:29;;;;;;;10.80;5.55;;;19.70;99.90;;;;;;5069236;28;20644;-82
2023/07/19 06:16:57;;;;;;;8.32;4.22;;;19.60;99.90;;;;;;5066114;28;20214;-81
2023/07/19 06:19:24;;;;;;;6.68;4.15;;;19.70;99.90;;;;;;5069134;28;20198;-82
2023/07/19 06:21:52;;;;;;;8.88;4.40;;;19.40;99.90;;;;;;5067102;28;20202;-82
2023/07/19 06:24:19;;;;;;;6.40;4.20;;;19.70;99.90;;;;;;5055896;28;20203;-82
2023/07/19 06:26:47;;;;;;;8.15;4.60;;;19.60;99.90;;;;;;5061235;28;20670;-82
2023/07/19 06:29:14;;;;;;;9.80;4.53;;;19.30;99.90;;;;;;5065260;28;20189;-82
2023/07/19 06:31:43;;;;;;;6.35;3.90;;;19.40;99.90;;;;;;5062189;28;20221;-82
2023/07/19 06:34:16;;;;;;;6.70;3.83;;;19.20;99.90;;;;;;5068998;28;20659;-83
2023/07/19 06:36:44;;;;;;;10.40;4.75;;;19.40;99.90;;;;;;5065822;28;20222;-83
2023/07/19 06:39:11;;;;;;;9.40;4.40;;;19.60;99.90;;;;;;5064262;28;20201;-82
2023/07/19 06:42:11;;;;;;;7.15;4.80;;;19.40;99.90;;;;;;5069102;28;20547;-83
2023/07/19 06:44:44;;;;;;;7.15;4.70;;;19.20;99.90;;;;;;5062225;28;20206;-85
2023/07/19 06:47:13;;;;;;;8.25;5.38;;;19.40;99.90;;;;;;5061832;28;20198;-85
2023/07/19 06:49:46;;;;;;;9.70;4.50;;;19.30;99.90;;;;;;5063678;28;20198;-86
2023/07/19 06:52:14;;;;;;;8.80;5.30;;;19.30;99.90;;;;;;5066234;28;20205;-82
2023/07/19 06:54:41;;;;;;;6.85;5.03;;;19.30;99.90;;;;;;5063243;28;20225;-81
2023/07/19 06:57:10;;;;;;;10.15;4.90;;;19.30;99.90;;;;;;5063291;28;20202;-83
2023/07/19 06:59:44;;;;;;;13.30;5.18;;;19.40;99.90;;;;;;5062083;28;20212;-81
2023/07/19 07:02:12;;;;;;;9.20;4.85;;;19.30;99.90;;;;;;5060341;28;20201;-81
2023/07/19 07:04:40;;;;;;;8.68;4.85;;;19.20;99.90;;;;;;5067945;28;20616;-82
2023/07/19 07:07:14;;;;;;;7.47;4.80;;;19.40;99.90;;;;;;5057027;28;20209;-81
2023/07/19 07:09:46;;;;;;;9.43;4.97;;;19.40;99.90;;;;;;5068606;28;20205;-83
2023/07/19 07:12:14;;;;;;;9.07;4.88;;;19.50;99.90;;;;;;5065233;28;20207;-82
2023/07/19 07:14:41;;;;;;;12.75;5.47;;;19.40;99.90;;;;;;5066048;28;20260;-81
2023/07/19 07:17:10;;;;;;;9.15;4.82;;;19.50;99.90;;;;;;5068447;28;20206;-82
2023/07/19 07:19:39;;;;;;;6.63;4.10;;;19.60;99.90;;;;;;5058851;28;20201;-83
2023/07/19 07:22:06;;;;;;;8.65;5.18;;;19.60;99.90;;;;;;5062978;28;20195;-82
2023/07/19 07:24:34;;;;;;;7.05;4.13;;;19.70;99.90;;;;;;5071061;28;20232;-82
2023/07/19 07:27:03;;;;;;;7.65;4.55;;;19.80;99.90;;;;;;5033775;28;20229;-82
2023/07/19 07:29:30;;;;;;;9.15;5.32;;;19.70;99.90;;;;;;5016048;28;20191;-81
2023/07/19 07:31:57;;;;;;;10.55;5.32;;;19.80;99.90;;;;;;5020081;28;20562;-81
2023/07/19 07:34:25;;;;;;;10.90;5.70;;;19.80;99.90;;;;;;5028354;28;20673;-81
2023/07/19 07:36:54;;;;;;;7.93;4.28;;;19.80;99.90;;;;;;5021398;28;20206;-82
2023/07/19 07:39:21;;;;;;;7.18;4.72;;;20.20;99.90;;;;;;5020058;28;20211;-82
2023/07/19 07:41:49;;;;;;;9.38;4.85;;;20.40;99.90;;;;;;5020968;28;20214;-83
2023/07/19 07:44:16;;;;;;;8.88;4.90;;;20.30;99.90;;;;;;5021062;28;20207;-84
2023/07/19 07:46:44;;;;;;;6.63;5.20;;;20.50;99.90;;;;;;5027230;28;20233;-83
2023/07/19 07:49:11;;;;;;;8.85;4.35;;;20.30;99.90;;;;;;5023040;28;20207;-84
2023/07/19 07:51:39;;;;;;;8.13;4.97;;;20.20;99.90;;;;;;5025765;28;20205;-82
2023/07/19 07:54:07;;;;;;;9.32;4.78;;;20.40;99.90;;;;;;5024024;28;20199;-81
2023/07/19 07:56:35;;;;;;;7.78;5.35;;;20.50;99.90;;;;;;5028185;28;20221;-80
2023/07/19 07:59:03;;;;;;;6.57;4.93;;;20.60;99.90;;;;;;5029971;28;20211;-80
2023/07/19 08:01:31;;;;;;;5.47;4.50;;;20.40;99.90;;;;;;5022891;28;20203;-80
2023/07/19 08:03:59;;;;;;;6.32;5.18;;;20.50;99.90;;;;;;5031528;28;20203;-80
2023/07/19 08:06:26;;;;;;;8.55;4.93;;;20.60;99.90;;;;;;5030000;28;20222;-80
2023/07/19 08:08:54;;;;;;;8.55;5.78;;;20.60;99.90;;;;;;5030187;28;20711;-80
2023/07/19 08:11:25;;;;;;;6.50;5.00;;;20.50;99.90;;;;;;5030290;28;20207;-80
2023/07/19 08:13:52;;;;;;;9.00;5.18;;;20.50;99.90;;;;;;5030426;28;20199;-80
2023/07/19 08:16:20;;;;;;;8.13;5.63;;;20.50;99.90;;;;;;5034798;28;20218;-80
2023/07/19 08:18:47;;;;;;;9.15;5.32;;;20.40;99.90;;;;;;5029521;28;20218;-80
2023/07/19 08:21:14;;;;;;;14.73;6.00;;;20.50;99.90;;;;;;5034400;28;20187;-80
2023/07/19 08:23:42;;;;;;;8.60;4.90;;;20.50;99.90;;;;;;5032467;28;20210;-80
2023/07/19 08:26:09;;;;;;;5.78;3.95;;;20.70;99.90;;;;;;5030756;28;20219;-80
2023/07/19 08:28:38;;;;;;;6.35;3.63;;;20.90;99.90;;;;;;5030904;28;20676;-80
2023/07/19 08:31:06;;;;;;;6.63;3.70;;;21.00;99.90;;;;;;5031073;28;20217;-80
2023/07/19 08:33:33;;;;;;;4.78;3.15;;;20.90;99.90;;;;;;5029199;28;20202;-80
2023/07/19 08:36:00;;;;;;;6.68;3.90;;;21.10;99.90;;;;;;5034167;28;20227;-80
2023/07/19 08:38:28;;;;;;;5.93;4.40;;;21.10;99.90;;;;;;5014556;28;20223;-80
2023/07/19 08:41:00;;;;;;;6.80;2.85;;;20.90;99.90;;;;;;5026935;28;20203;-80
2023/07/19 08:43:28;;;;;;;7.18;3.38;;;21.20;99.90;;;;;;5017138;28;20680;-80
2023/07/19 08:45:57;;;;;;;4.95;3.05;;;21.30;99.90;;;;;;5020026;28;20227;-80
2023/07/19 08:48:25;;;;;;;4.60;2.70;;;21.30;99.90;;;;;;5019727;28;20195;-80
2023/07/19 08:50:55;;;;;;;4.95;3.08;;;21.50;99.90;;;;;;5030993;28;20202;-80
2023/07/19 08:53:23;;;;;;;4.55;2.90;;;21.60;99.90;;;;;;5020778;28;20207;-80
2023/07/19 08:55:51;;;;;;;4.40;2.58;;;21.50;99.90;;;;;;5033365;28;20234;-80
2023/07/19 08:58:19;;;;;;;3.90;2.47;;;21.60;99.90;;;;;;5032949;28;20219;-81
2023/07/19 09:00:48;;;;;;;7.03;3.22;;;21.80;99.90;;;;;;5033171;28;20206;-81
2023/07/19 09:03:17;;;;;;;8.25;3.58;;;21.80;99.80;;;;;;5030891;28;20571;-80
2023/07/19 09:05:45;;;;;;;6.38;3.28;;;21.90;99.80;;;;;;5026641;28;20234;-80
2023/07/19 09:08:13;;;;;;;6.00;3.35;;;21.70;99.40;;;;;;5034722;28;20191;-80
2023/07/19 09:10:47;;;;;;;6.72;3.30;;;21.50;99.20;;;;;;5035182;28;20202;-80
2023/07/19 09:13:19;;;;;;;6.20;3.10;;;21.60;99.60;;;;;;5033822;28;20209;-80
2023/07/19 09:15:48;;;;;;;8.32;4.07;;;21.80;99.90;;;;;;5035728;28;20223;-80
2023/07/19 09:18:17;;;;;;;4.28;3.25;;;21.80;99.60;;;;;;5035255;28;20203;-80
2023/07/19 09:20:45;;;;;;;8.63;4.00;;;21.70;99.90;;;;;;5032105;28;20206;-81
2023/07/19 09:23:17;;;;;;;5.43;4.10;;;21.70;99.90;;;;;;5027194;28;20210;-81
2023/07/19 09:25:52;;;;;;;6.82;4.50;;;21.60;99.90;;;;;;5028404;28;20219;-80
2023/07/19 09:28:26;;;;;;;9.60;4.43;;;21.70;99.90;;;;;;5026780;28;20566;-80
2023/07/19 09:31:00;;;;;;;7.63;4.72;;;21.50;99.90;;;;;;5031826;28;20205;-80
2023/07/19 09:33:31;;;;;;;8.82;3.92;;;21.50;99.90;;;;;;5032996;28;20205;-80
2023/07/19 09:35:59;;;;;;;7.30;4.35;;;21.60;99.90;;;;;;5025555;28;20582;-80
2023/07/19 09:38:27;;;;;;;10.18;4.88;;;21.70;99.90;;;;;;5022936;28;20242;-80
2023/07/19 09:40:58;;;;;;;7.05;4.40;;;21.50;99.90;;;;;;5044195;28;20219;-80
2023/07/19 09:43:25;;;;;;;9.52;4.15;;;21.40;99.90;;;;;;5031565;28;20202;-80
2023/07/19 09:45:53;;;;;;;8.75;4.65;;;21.40;99.90;;;;;;5030972;28;20230;-80
2023/07/19 09:48:21;;;;;;;12.15;4.40;;;21.40;99.90;;;;;;5026174;28;20214;-80
2023/07/19 09:50:50;;;;;;;9.13;4.85;;;21.40;99.90;;;;;;5027982;28;20218;-80
2023/07/19 09:53:23;;;;;;;7.55;5.80;;;21.60;99.90;;;;;;5028600;28;20207;-79
2023/07/19 09:55:53;;;;;;;11.70;5.40;;;21.70;99.90;;;;;;5023473;28;20224;-80
2023/07/19 09:58:23;;;;;;;9.35;5.10;;;21.50;99.90;;;;;;5024672;28;20210;-80
2023/07/19 10:00:51;;;;;;;7.10;4.45;;;21.60;99.90;;;;;;5023929;28;20692;-80
2023/07/19 10:03:20;;;;;;;8.18;4.75;;;21.50;99.90;;;;;;5026964;28;20208;-80
2023/07/19 10:05:57;;;;;;;7.00;4.82;;;21.40;99.90;;;;;;5027994;28;20227;-80
2023/07/19 10:08:25;;;;;;;9.45;5.50;;;21.50;99.90;;;;;;5029040;28;20210;-80
2023/07/19 10:10:58;;;;;;;9.70;5.22;;;21.30;99.90;;;;;;5025268;28;20202;-80
2023/07/19 10:13:32;;;;;;;8.23;4.38;;;21.30;99.90;;;;;;5041780;28;20205;-80
2023/07/19 10:16:00;;;;;;;7.40;4.20;;;21.30;99.90;;;;;;5024718;28;20265;-80
2023/07/19 10:18:29;;;;;;;9.18;4.70;;;21.40;99.90;;;;;;5045147;28;20212;-82
2023/07/19 10:21:05;;;;;;;10.35;4.57;;;21.30;99.90;;;;;;5026569;28;20234;-83
2023/07/19 10:23:34;;;;;;;8.43;4.32;;;21.40;99.90;;;;;;5018479;28;20206;-82
2023/07/19 10:26:06;;;;;;;6.25;3.50;;;21.60;99.90;;;;;;5026747;28;20220;-82
2023/07/19 10:28:33;;;;;;;8.00;4.57;;;21.60;99.90;;;;;;5022802;28;20192;-83
2023/07/19 10:31:01;;;;;;;5.68;4.15;;;21.60;99.90;;;;;;5019686;28;20230;-82
2023/07/19 10:33:30;;;;;;;5.00;3.35;;;21.80;99.90;;;;;;5045563;28;20533;-83
2023/07/19 10:36:04;;;;;;;6.63;3.45;;;22.00;99.90;;;;;;5015409;28;20239;-81
2023/07/19 10:38:33;;;;;;;7.55;4.03;;;22.20;99.90;;;;;;5029627;28;20206;-80
2023/07/19 10:41:05;;;;;;;7.82;4.50;;;22.10;99.90;;;;;;5024663;28;20673;-79
2023/07/19 10:43:34;;;;;;;5.43;4.10;;;22.10;99.90;;;;;;5045098;28;20203;-79
2023/07/19 10:46:03;;;;;;;7.20;4.70;;;21.90;99.90;;;;;;5031356;28;20223;-79
2023/07/19 10:48:35;;;;;;;6.88;4.18;;;21.70;99.90;;;;;;5021508;28;20207;-79
2023/07/19 10:51:04;;;;;;;8.55;4.28;;;21.90;99.90;;;;;;5028943;28;20195;-79
2023/07/19 10:53:42;;;;;;;6.82;4.13;;;22.20;99.90;;;;;;5023365;28;20207;-79
2023/07/19 10:56:10;;;;;;;7.20;5.30;;;22.20;99.90;;;;;;5062024;28;20229;-79
2023/07/19 10:58:37;;;;;;;6.47;4.85;;;22.20;99.90;;;;;;5029266;28;20203;-79
2023/07/19 11:01:05;;;;;;;8.15;5.60;;;22.30;99.90;;;;;;5030937;28;20206;-80
2023/07/19 11:03:32;;;;;;;7.93;4.53;;;22.40;99.90;;;;;;5026379;28;20210;-80
2023/07/19 11:06:00;;;;;;;8.07;4.97;;;22.30;99.90;;;;;;5027976;28;20224;-80
2023/07/19 11:08:29;;;;;;;7.78;4.75;;;22.30;99.90;;;;;;5029018;28;20421;-80
2023/07/19 11:11:00;;;;;;;6.63;4.43;;;22.40;99.90;;;;;;5030949;28;20214;-80
2023/07/19 11:13:28;;;;;;;8.25;4.15;;;22.40;99.90;;;;;;5029012;28;20198;-80
2023/07/19 11:15:59;;;;;;;7.97;4.60;;;22.80;99.90;;;;;;5023838;28;20231;-80
2023/07/19 11:18:27;;;;;;;7.38;4.85;;;22.60;99.90;;;;;;5028748;28;20551;-80
2023/07/19 11:20:57;;;;;;;7.45;4.63;;;22.80;99.90;;;;;;5031968;28;20606;-80
2023/07/19 11:23:25;;;;;;;5.80;3.95;;;22.70;99.90;;;;;;5026398;28;20665;-79
2023/07/19 11:26:04;;;;;;;7.15;4.70;;;22.50;99.90;;;;;;5040814;28;20215;-79
2023/07/19 11:28:36;;;;;;;8.75;4.15;;;22.60;99.90;;;;;;5035715;28;20186;-80
2023/07/19 11:31:05;;;;;;;6.82;4.57;;;22.90;99.90;;;;;;5058114;28;20593;-79
2023/07/19 11:33:36;;;;;;;6.47;4.00;;;23.00;99.40;;;;;;5022536;28;20554;-79
2023/07/19 11:36:07;;;;;;;5.22;3.97;;;23.10;97.80;;;;;;5020697;28;20218;-79
2023/07/19 11:38:34;;;;;;;5.93;3.75;;;23.30;98.80;;;;;;5017317;28;20203;-79
2023/07/19 11:41:02;;;;;;;5.72;3.33;;;23.30;98.00;;;;;;5026038;28;20216;-79
2023/07/19 11:43:31;;;;;;;4.30;2.97;;;23.20;97.80;;;;;;5030012;28;20199;-79
2023/07/19 11:45:59;;;;;;;6.18;3.22;;;23.20;96.70;;;;;;5025333;28;20231;-81
2023/07/19 11:48:27;;;;;;;6.28;3.30;;;23.10;95.70;;;;;;5035600;28;20191;-79
2023/07/19 11:50:54;;;;;;;6.32;3.05;;;23.20;95.90;;;;;;5037087;28;20199;-79
2023/07/19 11:53:27;;;;;;;10.35;3.42;;;23.20;96.20;;;;;;5033084;28;20680;-79
2023/07/19 11:55:54;;;;;;;4.20;3.70;;;23.40;96.10;;;;;;5048426;28;20230;-79
2023/07/19 11:58:22;;;;;;;5.40;3.25;;;23.40;96.00;;;;;;5035615;28;20206;-79
2023/07/19 12:01:00;;;;;;;7.50;3.00;;;23.40;96.20;;;;;;5023708;28;20227;-79
2023/07/19 12:03:27;;;;;;;6.22;3.20;;;23.50;96.10;;;;;;5035249;28;20206;-79
2023/07/19 12:05:55;;;;;;;4.78;3.75;;;23.30;96.00;;;;;;5035658;28;20262;-79
2023/07/19 12:08:22;;;;;;;3.28;2.90;;;23.10;95.90;;;;;;5035900;28;20206;-80
2023/07/19 12:10:50;;;;;;;7.22;3.72;;;23.20;96.10;;;;;;5030408;28;20195;-79
2023/07/19 12:13:17;;;;;;;8.48;3.20;;;23.20;96.30;;;;;;5039759;28;20183;-80
2023/07/19 12:15:45;;;;;;;5.55;3.40;;;23.40;96.30;;;;;;5036207;28;20219;-80
2023/07/19 12:18:14;;;;;;;4.30;3.17;;;23.40;95.40;;;;;;5031266;28;20210;-80
2023/07/19 12:20:43;;;;;;;5.75;3.58;;;23.30;95.40;;;;;;5038021;28;20213;-80
2023/07/19 12:23:11;;;;;;;5.50;2.65;;;23.30;96.00;;;;;;5035570;28;20203;-80
2023/07/19 12:25:40;;;;;;;4.00;2.88;;;23.30;96.20;;;;;;5035665;28;20223;-82
2023/07/19 12:28:07;;;;;;;8.00;3.75;;;23.30;96.20;;;;;;5032498;28;20532;-80
2023/07/19 12:30:35;;;;;;;4.15;2.85;;;23.20;95.60;;;;;;5036723;28;20207;-80
2023/07/19 12:33:03;;;;;;;5.22;2.88;;;23.30;95.80;;;;;;5031812;28;20225;-80
2023/07/19 12:35:32;;;;;;;6.18;2.92;;;23.10;95.80;;;;;;5026656;28;20226;-79
2023/07/19 12:37:59;;;;;;;3.83;2.40;;;22.90;95.80;;;;;;5035618;28;20218;-79
2023/07/19 12:40:27;;;;;;;4.80;2.53;;;22.90;95.80;;;;;;5029844;28;20619;-80
2023/07/19 12:42:57;;;;;;;3.72;2.75;;;23.00;95.80;;;;;;5031884;28;20211;-80
2023/07/19 12:45:25;;;;;;;5.90;2.53;;;23.20;96.10;;;;;;5032001;28;20227;-81
2023/07/19 12:47:52;;;;;;;5.75;2.58;;;23.20;95.60;;;;;;5031539;28;20206;-82
2023/07/19 12:50:20;;;;;;;5.53;2.88;;;23.30;95.50;;;;;;5050796;28;20215;-78
2023/07/19 12:52:51;;;;;;;4.60;3.00;;;23.70;94.90;;;;;;5036072;28;20195;-79